createdAt,value
2023-05-31T00:57:48.069Z,99469.16
2023-05-31T01:00:18.279Z,99468.00
2023-05-31T01:03:28.202Z,99469.19
2023-05-31T01:13:42.105Z,99461.78
2023-05-31T01:16:34.169Z,99461.34
2023-05-31T01:22:51.677Z,99457.91
2023-05-31T01:32:14.953Z,99454.94
2023-05-31T01:34:49.585Z,99454.22
2023-05-31T01:40:14.354Z,99461.38
2023-05-31T01:43:12.411Z,99455.38
2023-05-31T01:46:52.250Z,99454.28
2023-05-31T01:52:19.807Z,99454.13
2023-05-31T01:55:06.605Z,99450.28
2023-05-31T01:57:46.057Z,99458.53
2023-05-31T02:00:19.100Z,99457.00
2023-05-31T02:02:56.647Z,99458.66
2023-05-31T02:05:49.497Z,99456.88
2023-05-31T02:08:21.757Z,99461.03
2023-05-31T02:10:51.810Z,99462.25
2023-05-31T02:13:21.490Z,99462.00
2023-05-31T02:15:50.404Z,99466.81
2023-05-31T02:18:18.931Z,99459.00
2023-05-31T02:20:50.713Z,99465.25
2023-05-31T02:23:21.979Z,99468.97
2023-05-31T02:25:52.687Z,99467.50
2023-05-31T02:28:27.247Z,99467.41
2023-05-31T02:30:57.092Z,99473.38
2023-05-31T02:33:32.192Z,99470.78
2023-05-31T02:36:03.947Z,99472.50
2023-05-31T02:38:33.664Z,99464.84
2023-05-31T02:41:04.558Z,99467.50
2023-05-31T02:43:32.624Z,99472.25
2023-05-31T02:46:03.192Z,99467.03
2023-05-31T02:48:42.313Z,99465.50
2023-05-31T02:51:10.613Z,99473.25
2023-05-31T02:53:40.207Z,99482.25
2023-05-31T02:56:10.445Z,99479.06
2023-05-31T02:58:59.366Z,99483.94
2023-05-31T03:01:27.739Z,99483.09
2023-05-31T03:04:00.564Z,99479.91
2023-05-31T03:06:29.763Z,99484.22
2023-05-31T03:09:07.527Z,99486.91
2023-05-31T03:12:02.439Z,99483.37
2023-05-31T03:14:31.373Z,99491.41
2023-05-31T03:16:59.999Z,99497.00
2023-05-31T03:19:34.086Z,99486.84
2023-05-31T03:22:24.437Z,99489.47
2023-05-31T03:25:02.688Z,99491.22
2023-05-31T03:27:35.481Z,99495.69
2023-05-31T03:30:04.476Z,99498.09
2023-05-31T03:32:37.968Z,99502.91
2023-05-31T03:35:11.098Z,99511.69
2023-05-31T03:40:56.915Z,99498.25
2023-05-31T03:43:40.429Z,99503.84
2023-05-31T03:46:21.178Z,99502.84
2023-05-31T03:48:49.779Z,99503.75
2023-05-31T03:51:22.237Z,99502.62
2023-05-31T03:54:13.138Z,99505.72
2023-05-31T03:56:56.065Z,99510.94
2023-05-31T03:59:28.220Z,99519.09
2023-05-31T04:01:57.685Z,99519.78
2023-05-31T04:04:28.725Z,99518.78
2023-05-31T04:06:56.867Z,99512.94
2023-05-31T04:09:27.221Z,99516.97
2023-05-31T04:12:03.360Z,99523.81
2023-05-31T04:14:33.109Z,99518.78
2023-05-31T04:17:04.735Z,99526.31
2023-05-31T04:19:36.239Z,99531.16
2023-05-31T04:22:05.859Z,99528.19
2023-05-31T04:24:34.070Z,99529.00
2023-05-31T04:27:04.357Z,99526.53
2023-05-31T04:29:35.339Z,99535.66
2023-05-31T04:32:25.872Z,99532.84
2023-05-31T04:35:22.283Z,99532.72
2023-05-31T04:37:54.005Z,99533.84
2023-05-31T04:40:23.456Z,99538.81
2023-05-31T04:42:54.845Z,99539.97
2023-05-31T04:45:34.744Z,99544.84
2023-05-31T04:48:08.241Z,99536.25
2023-05-31T04:50:41.726Z,99539.16
2023-05-31T04:53:10.501Z,99538.06
2023-05-31T04:55:44.527Z,99545.53
2023-05-31T04:58:20.741Z,99556.63
2023-05-31T05:00:50.671Z,99546.63
2023-05-31T05:03:25.531Z,99551.78
2023-05-31T05:05:55.200Z,99549.31
2023-05-31T05:08:24.471Z,99548.25
2023-05-31T05:10:52.545Z,99547.50
2023-05-31T05:16:07.437Z,99547.53
2023-05-31T05:18:41.960Z,99553.63
2023-05-31T05:21:10.057Z,99558.94
2023-05-31T05:23:38.704Z,99556.44
2023-05-31T05:26:06.737Z,99551.16
2023-05-31T05:28:38.039Z,99548.94
2023-05-31T05:31:09.280Z,99546.94
2023-05-31T05:33:38.051Z,99552.91
2023-05-31T05:36:06.978Z,99552.72
2023-05-31T05:38:35.887Z,99555.09
2023-05-31T05:41:04.076Z,99551.87
2023-05-31T05:43:32.646Z,99556.03
2023-05-31T05:46:02.030Z,99557.22
2023-05-31T05:48:30.120Z,99557.09
2023-05-31T05:50:58.552Z,99552.22
2023-05-31T05:53:28.558Z,99556.44
2023-05-31T05:55:56.688Z,99557.16
2023-05-31T05:58:25.707Z,99552.63
2023-05-31T06:00:58.215Z,99560.44
2023-05-31T06:03:27.904Z,99564.63
2023-05-31T06:06:03.216Z,99567.72
2023-05-31T06:08:31.469Z,99572.69
2023-05-31T06:10:59.456Z,99576.84
2023-05-31T06:13:27.444Z,99570.69
2023-05-31T06:16:08.067Z,99559.56
2023-05-31T06:18:36.561Z,99569.59
2023-05-31T06:21:15.679Z,99567.66
2023-05-31T06:23:44.680Z,99569.69
2023-05-31T06:26:12.813Z,99567.47
2023-05-31T06:28:45.264Z,99568.19
2023-05-31T06:31:21.304Z,99570.38
2023-05-31T06:33:55.433Z,99565.94
2023-05-31T06:39:40.021Z,99574.56
2023-05-31T06:42:17.076Z,99573.47
2023-05-31T06:44:57.056Z,99568.63
2023-05-31T06:47:44.390Z,99576.06
2023-05-31T06:50:20.781Z,99572.50
2023-05-31T06:52:59.566Z,99563.00
2023-05-31T06:55:28.038Z,99571.09
2023-05-31T06:58:01.955Z,99574.69
2023-05-31T07:03:28.364Z,99581.31
2023-05-31T07:05:56.598Z,99583.09
2023-05-31T07:11:24.257Z,99590.50
2023-05-31T07:17:14.792Z,99596.13
2023-05-31T07:20:54.077Z,99591.66
2023-05-31T07:23:44.294Z,99590.91
2023-05-31T07:29:19.652Z,99599.00
2023-05-31T07:31:50.214Z,99590.66
2023-05-31T07:34:29.306Z,99598.00
2023-05-31T07:37:34.645Z,99593.69
2023-05-31T07:40:10.466Z,99604.87
2023-05-31T07:45:50.524Z,99597.19
2023-05-31T07:51:36.661Z,99597.28
2023-05-31T07:54:11.838Z,99597.91
2023-05-31T07:56:42.751Z,99594.81
2023-05-31T08:03:23.611Z,99599.47
2023-05-31T08:11:59.265Z,99596.66
2023-05-31T08:21:41.811Z,99599.19
2023-05-31T08:24:21.450Z,99583.72
2023-05-31T08:27:40.295Z,99596.25
2023-05-31T08:34:00.553Z,99590.09
2023-05-31T08:44:19.338Z,99592.53
2023-05-31T08:54:04.229Z,99593.72
2023-05-31T08:56:44.150Z,99593.66
2023-05-31T08:59:49.478Z,99592.53
2023-05-31T09:05:57.928Z,99600.56
2023-05-31T09:08:41.144Z,99596.72
2023-05-31T09:12:03.560Z,99592.81
2023-05-31T09:15:06.509Z,99584.31
2023-05-31T09:17:36.522Z,99587.81
2023-05-31T09:23:35.162Z,99583.75
2023-05-31T09:26:09.560Z,99589.66
2023-05-31T09:32:16.623Z,99583.50
2023-05-31T09:35:16.178Z,99582.69
2023-05-31T09:48:25.444Z,99581.75
2023-05-31T09:51:03.703Z,99583.44
2023-05-31T09:53:51.827Z,99569.59
2023-05-31T09:56:28.745Z,99588.25
2023-05-31T09:58:57.905Z,99576.25
2023-05-31T10:01:32.801Z,99570.72
2023-05-31T10:04:07.683Z,99574.94
2023-05-31T10:06:37.833Z,99571.44
2023-05-31T10:09:13.885Z,99569.00
2023-05-31T10:12:02.229Z,99568.63
2023-05-31T10:14:41.277Z,99557.50
2023-05-31T10:17:21.726Z,99568.88
2023-05-31T10:23:29.486Z,99561.81
2023-05-31T10:26:13.537Z,99562.22
2023-05-31T10:29:17.016Z,99573.97
2023-05-31T10:39:35.736Z,99552.00
2023-05-31T10:42:43.501Z,99549.38
2023-05-31T10:45:15.045Z,99552.03
2023-05-31T10:47:55.277Z,99551.94
2023-05-31T10:50:29.845Z,99553.47
2023-05-31T10:53:17.834Z,99552.91
2023-05-31T10:55:50.849Z,99547.53
2023-05-31T10:58:37.221Z,99550.03
2023-05-31T11:01:16.167Z,99543.75
2023-05-31T11:03:54.105Z,99543.78
2023-05-31T11:06:32.064Z,99538.50
2023-05-31T11:09:36.546Z,99542.97
2023-05-31T11:12:13.529Z,99540.84
2023-05-31T11:15:11.464Z,99536.94
2023-05-31T11:17:55.285Z,99539.09
2023-05-31T11:20:27.037Z,99543.34
2023-05-31T11:23:14.928Z,99531.03
2023-05-31T11:25:43.055Z,99528.31
2023-05-31T11:28:15.394Z,99522.28
2023-05-31T11:31:12.588Z,99522.88
2023-05-31T11:33:58.391Z,99517.44
2023-05-31T11:36:38.161Z,99522.41
2023-05-31T11:39:07.267Z,99514.78
2023-05-31T11:44:53.257Z,99511.25
2023-05-31T11:47:34.259Z,99511.03
2023-05-31T11:50:08.664Z,99512.75
2023-05-31T12:18:55.406Z,99505.84
2023-05-31T12:24:52.331Z,99496.59
2023-05-31T12:27:46.131Z,99496.97
2023-05-31T12:30:23.302Z,99495.56
2023-05-31T12:32:59.018Z,99489.38
2023-05-31T12:35:28.046Z,99487.94
2023-05-31T12:37:56.423Z,99484.06
2023-05-31T12:40:24.575Z,99482.63
2023-05-31T12:43:01.053Z,99483.16
2023-05-31T12:45:29.582Z,99478.44
2023-05-31T12:47:58.358Z,99485.84
2023-05-31T12:50:29.646Z,99481.38
2023-05-31T12:52:58.299Z,99484.97
2023-05-31T12:55:27.892Z,99475.03
2023-05-31T12:57:55.659Z,99476.72
2023-05-31T13:00:23.974Z,99470.88
2023-05-31T13:02:52.968Z,99469.19
2023-05-31T13:05:21.027Z,99470.66
2023-05-31T13:07:49.177Z,99466.91
2023-05-31T13:10:17.055Z,99466.34
2023-05-31T13:12:45.023Z,99463.16
2023-05-31T13:18:19.306Z,99449.34
2023-05-31T13:20:53.544Z,99447.06
2023-05-31T13:23:22.749Z,99448.50
2023-05-31T13:29:32.589Z,99442.69
2023-05-31T13:32:04.076Z,99436.59
2023-05-31T13:34:32.863Z,99434.06
2023-05-31T13:37:05.083Z,99425.25
2023-05-31T13:39:33.886Z,99434.88
2023-05-31T13:42:02.945Z,99423.81
2023-05-31T13:44:30.690Z,99428.31
2023-05-31T13:46:58.572Z,99427.63
2023-05-31T13:49:26.765Z,99424.19
2023-05-31T13:51:54.555Z,99425.84
2023-05-31T13:54:22.289Z,99423.72
2023-05-31T13:56:50.344Z,99419.06
2023-05-31T13:59:19.232Z,99420.22
2023-05-31T14:01:47.719Z,99418.81
2023-05-31T14:04:24.402Z,99417.78
2023-05-31T14:06:54.623Z,99417.50
2023-05-31T14:10:26.032Z,99408.88
2023-05-31T14:13:00.779Z,99405.22
2023-05-31T14:15:34.855Z,99404.44
2023-05-31T14:18:04.890Z,99400.16
2023-05-31T14:20:35.088Z,99408.75
2023-05-31T14:26:24.587Z,99403.06
2023-05-31T14:28:52.333Z,99397.00
2023-05-31T14:31:21.070Z,99401.88
2023-05-31T14:33:49.430Z,99395.50
2023-05-31T14:36:17.753Z,99397.72
2023-05-31T14:38:46.007Z,99399.41
2023-05-31T14:41:14.206Z,99396.97
2023-05-31T14:43:42.327Z,99400.88
2023-05-31T14:46:10.979Z,99394.03
2023-05-31T14:48:42.486Z,99394.06
2023-05-31T14:51:10.607Z,99392.75
2023-05-31T14:53:38.516Z,99396.00
2023-05-31T14:56:17.558Z,99390.53
2023-05-31T14:58:53.670Z,99390.75
2023-05-31T15:01:24.042Z,99393.19
2023-05-31T15:03:56.458Z,99398.19
2023-05-31T15:06:28.616Z,99388.25
2023-05-31T15:08:56.416Z,99390.87
2023-05-31T15:11:24.166Z,99395.31
2023-05-31T15:13:52.577Z,99394.56
2023-05-31T15:16:22.828Z,99387.78
2023-05-31T15:18:52.089Z,99384.84
2023-05-31T15:24:14.891Z,99397.72
2023-05-31T15:27:10.765Z,99391.28
2023-05-31T15:29:40.137Z,99393.78
2023-05-31T15:35:16.233Z,99390.41
2023-05-31T15:37:47.985Z,99394.03
2023-05-31T15:40:24.574Z,99385.19
2023-05-31T15:42:54.519Z,99385.28
2023-05-31T15:45:22.368Z,99379.81
2023-05-31T15:47:50.138Z,99374.72
2023-05-31T15:50:21.710Z,99374.47
2023-05-31T15:52:49.813Z,99371.25
2023-05-31T15:55:17.686Z,99374.97
2023-05-31T15:57:46.157Z,99379.81
2023-05-31T16:00:14.757Z,99368.09
2023-05-31T16:02:42.966Z,99370.69
2023-05-31T16:05:13.219Z,99371.31
2023-05-31T16:07:41.371Z,99363.28
2023-05-31T16:10:09.964Z,99362.88
2023-05-31T16:12:38.008Z,99364.72
2023-05-31T16:15:06.211Z,99363.81
2023-05-31T16:17:34.531Z,99367.34
2023-05-31T16:20:02.625Z,99366.88
2023-05-31T16:22:30.590Z,99365.16
2023-05-31T16:24:58.954Z,99365.84
2023-05-31T16:27:26.739Z,99364.72
2023-05-31T16:29:54.576Z,99367.41
2023-05-31T16:32:23.014Z,99366.25
2023-05-31T16:34:50.909Z,99365.84
2023-05-31T16:37:20.593Z,99367.75
2023-05-31T16:39:48.726Z,99372.12
2023-05-31T16:42:16.587Z,99364.19
2023-05-31T16:44:46.446Z,99367.03
2023-05-31T16:47:14.639Z,99364.62
2023-05-31T16:49:42.378Z,99372.34
2023-05-31T16:52:12.079Z,99368.84
2023-05-31T16:54:40.324Z,99370.34
2023-05-31T16:57:08.086Z,99371.94
2023-05-31T16:59:37.170Z,99367.91
2023-05-31T17:02:05.512Z,99374.13
2023-05-31T17:04:33.366Z,99362.34
2023-05-31T17:07:01.574Z,99366.28
2023-05-31T17:09:39.429Z,99366.88
2023-05-31T17:12:08.092Z,99373.19
2023-05-31T17:14:38.523Z,99370.81
2023-05-31T17:17:06.532Z,99369.44
2023-05-31T17:19:34.344Z,99377.50
2023-05-31T17:22:02.751Z,99372.06
2023-05-31T17:24:30.633Z,99366.63
2023-05-31T17:27:03.648Z,99365.94
2023-05-31T17:29:31.928Z,99365.44
2023-05-31T17:31:59.659Z,99368.06
2023-05-31T17:34:27.568Z,99367.16
2023-05-31T17:36:55.782Z,99369.84
2023-05-31T17:39:23.954Z,99366.13
2023-05-31T17:41:51.735Z,99372.16
2023-05-31T17:44:20.633Z,99376.94
2023-05-31T17:46:48.382Z,99375.16
2023-05-31T17:49:16.326Z,99383.06
2023-05-31T17:51:44.517Z,99372.94
2023-05-31T17:54:12.319Z,99378.19
2023-05-31T17:56:41.809Z,99373.38
2023-05-31T17:59:10.200Z,99381.97
2023-05-31T18:01:41.408Z,99384.72
2023-05-31T18:04:09.776Z,99380.34
2023-05-31T18:06:37.745Z,99391.44
2023-05-31T18:09:06.072Z,99389.19
2023-05-31T18:11:34.307Z,99387.81
2023-05-31T18:14:02.969Z,99385.44
2023-05-31T18:16:31.975Z,99388.00
2023-05-31T18:19:00.203Z,99387.31
2023-05-31T18:21:28.039Z,99390.00
2023-05-31T18:23:55.913Z,99387.66
2023-05-31T18:26:24.264Z,99377.84
2023-05-31T18:28:52.088Z,99382.56
2023-05-31T18:31:19.951Z,99384.37
2023-05-31T18:33:48.013Z,99393.69
2023-05-31T18:36:15.943Z,99392.59
2023-05-31T18:38:44.194Z,99395.78
2023-05-31T18:41:12.514Z,99391.09
2023-05-31T18:43:40.348Z,99400.72
2023-05-31T18:46:08.157Z,99406.63
2023-05-31T18:48:37.776Z,99401.09
2023-05-31T18:51:06.853Z,99408.34
2023-05-31T18:53:34.800Z,99406.69
2023-05-31T18:56:02.920Z,99399.97
2023-05-31T18:58:30.980Z,99402.94
2023-05-31T19:00:59.028Z,99417.03
2023-05-31T19:03:28.259Z,99411.75
2023-05-31T19:05:56.432Z,99424.59
2023-05-31T19:08:24.109Z,99418.06
2023-05-31T19:10:52.260Z,99428.41
2023-05-31T19:13:20.437Z,99418.66
2023-05-31T19:15:51.072Z,99423.91
2023-05-31T19:18:20.021Z,99422.66
2023-05-31T19:20:49.574Z,99426.38
2023-05-31T19:23:17.796Z,99429.78
2023-05-31T19:25:46.075Z,99437.63
2023-05-31T19:28:14.798Z,99434.94
2023-05-31T19:30:43.725Z,99435.13
2023-05-31T19:33:14.294Z,99435.69
2023-05-31T19:35:42.144Z,99446.22
2023-05-31T19:38:10.940Z,99438.91
2023-05-31T19:40:39.126Z,99446.25
2023-05-31T19:43:07.655Z,99443.63
2023-05-31T19:45:36.198Z,99438.69
2023-05-31T19:48:09.325Z,99447.81
2023-05-31T19:50:37.916Z,99446.38
2023-05-31T19:53:05.977Z,99445.69
2023-05-31T19:55:33.929Z,99449.97
2023-05-31T19:58:01.652Z,99451.09
2023-05-31T20:00:29.765Z,99446.06
2023-05-31T20:02:58.044Z,99461.06
2023-05-31T20:05:25.904Z,99453.63
2023-05-31T20:07:53.685Z,99447.94
2023-05-31T20:10:21.939Z,99450.44
2023-05-31T20:12:52.836Z,99454.38
2023-05-31T20:15:21.318Z,99454.34
2023-05-31T20:17:49.775Z,99458.16
2023-05-31T20:20:17.552Z,99446.06
2023-05-31T20:22:46.290Z,99438.56
2023-05-31T20:25:14.352Z,99441.25
2023-05-31T20:27:42.286Z,99438.59
2023-05-31T20:30:12.098Z,99437.47
2023-05-31T20:32:40.452Z,99428.81
2023-05-31T20:35:08.558Z,99431.97
2023-05-31T20:37:36.627Z,99434.09
2023-05-31T20:40:04.487Z,99445.63
2023-05-31T20:42:32.186Z,99456.53
2023-05-31T20:45:00.409Z,99444.78
2023-05-31T20:47:29.603Z,99447.28
2023-05-31T20:49:57.448Z,99451.34
2023-05-31T20:52:25.689Z,99448.72
2023-05-31T20:54:53.488Z,99450.69
2023-05-31T20:57:21.431Z,99452.47
2023-05-31T20:59:51.195Z,99449.19
2023-05-31T21:02:19.510Z,99445.66
2023-05-31T21:04:47.861Z,99438.94
2023-05-31T21:07:16.055Z,99445.19
2023-05-31T21:09:44.444Z,99445.75
2023-05-31T21:12:12.484Z,99445.37
2023-05-31T21:14:40.652Z,99436.09
2023-05-31T21:17:08.542Z,99440.31
2023-05-31T21:22:21.982Z,99444.19
2023-05-31T21:24:50.080Z,99439.25
2023-05-31T21:27:17.801Z,99446.97
2023-05-31T21:29:46.071Z,99449.59
2023-05-31T21:32:21.144Z,99445.72
2023-05-31T21:35:41.245Z,99441.25
2023-05-31T21:38:12.711Z,99452.87
2023-05-31T21:43:50.172Z,99446.53
2023-05-31T21:46:42.580Z,99444.00
2023-05-31T21:49:37.752Z,99446.38
2023-05-31T21:52:17.123Z,99443.09
2023-05-31T21:55:22.629Z,99449.09
2023-05-31T21:58:26.776Z,99458.59
2023-05-31T22:15:57.042Z,99454.59
2023-05-31T22:20:04.975Z,99453.06
2023-05-31T22:26:48.417Z,99453.84
2023-05-31T22:58:49.559Z,99465.28
2023-05-31T23:01:51.410Z,99461.84
2023-05-31T23:05:11.278Z,99462.63
2023-05-31T23:08:09.337Z,99462.19
2023-05-31T23:18:53.273Z,99457.91
2023-05-31T23:29:27.409Z,99452.97
2023-05-31T23:32:47.353Z,99445.81
2023-05-31T23:36:23.788Z,99449.09
